Time;durP1;ratioP1;P1;durP2;ratioP2;P2;SDS_P1;SDS_P2;PMS_P1;PMS_P2;Temp;Humidity;BMP_temperature;BMP_pressure;BME280_temperature;BME280_humidity;BME280_pressure;Samples;Min_cycle;Max_cycle;Signal;HPM_P1;HPM_P2
2022/12/21 00:01:39;;;;;;;34.28;6.47;;;;;;;7.88;100.00;97954.94;5012057;28;20510;-84
2022/12/21 00:04:05;;;;;;;32.42;7.50;;;;;;;7.76;100.00;97939.88;5012237;28;20079;-84
2022/12/21 00:06:34;;;;;;;29.95;7.72;;;;;;;7.79;100.00;97930.84;4994472;28;20105;-84
2022/12/21 00:09:01;;;;;;;24.13;7.75;;;;;;;7.91;100.00;97936.25;4994484;28;20091;-84
2022/12/21 00:11:29;;;;;;;44.20;8.85;;;;;;;7.78;100.00;97935.25;5010932;28;20029;-86
2022/12/21 00:13:57;;;;;;;33.28;7.55;;;;;;;7.90;100.00;97934.63;5011627;28;20038;-85
2022/12/21 00:16:25;;;;;;;31.83;9.35;;;;;;;7.95;100.00;97929.59;5011323;28;20396;-85
2022/12/21 00:18:51;;;;;;;33.70;9.35;;;;;;;7.99;100.00;97928.97;4993179;28;20033;-85
2022/12/21 00:21:26;;;;;;;39.03;9.35;;;;;;;7.91;100.00;97928.41;5011522;28;20036;-84
2022/12/21 00:23:53;;;;;;;31.48;8.18;;;;;;;8.18;100.00;97928.31;5011024;28;20030;-85
2022/12/21 00:26:21;;;;;;;33.00;9.55;;;;;;;8.22;100.00;97921.66;4992785;28;20021;-86
2022/12/21 00:28:49;;;;;;;30.92;8.65;;;;;;;8.13;100.00;97915.84;5012061;28;20022;-83
2022/12/21 00:31:21;;;;;;;37.65;12.00;;;;;;;7.99;100.00;97915.91;5011145;28;20388;-85
2022/12/21 00:33:47;;;;;;;34.08;9.35;;;;;;;8.04;100.00;97904.03;4993805;28;20041;-84
2022/12/21 00:36:15;;;;;;;36.97;10.60;;;;;;;8.12;100.00;97899.38;5010406;28;20029;-86
2022/12/21 00:38:41;;;;;;;39.83;12.10;;;;;;;8.05;100.00;97892.56;4978624;28;20484;-85
2022/12/21 00:41:12;;;;;;;43.47;11.77;;;;;;;7.96;100.00;97892.81;5011277;28;20500;-85
2022/12/21 00:43:39;;;;;;;43.72;11.90;;;;;;;8.12;100.00;97877.66;5011487;28;20038;-86
2022/12/21 00:46:05;;;;;;;38.35;11.95;;;;;;;7.95;100.00;97887.78;5011381;28;20042;-85
2022/12/21 00:48:33;;;;;;;37.90;11.27;;;;;;;8.13;100.00;97890.53;5011571;28;20036;-85
2022/12/21 00:51:10;;;;;;;35.85;10.45;;;;;;;8.38;100.00;97894.25;5011629;28;20034;-83
2022/12/21 00:53:38;;;;;;;32.30;9.63;;;;;;;8.25;100.00;97882.03;5024702;28;20030;-85
2022/12/21 00:56:06;;;;;;;30.50;9.93;;;;;;;8.07;100.00;97888.75;4992732;28;20101;-85
2022/12/21 00:58:34;;;;;;;36.75;9.88;;;;;;;8.13;100.00;97894.94;4993363;28;20442;-83
2022/12/21 01:01:04;;;;;;;41.75;10.27;;;;;;;8.12;100.00;97888.94;5008432;28;20034;-85
2022/12/21 01:03:31;;;;;;;37.95;9.68;;;;;;;8.20;100.00;97884.47;5011273;28;20057;-84
2022/12/21 01:05:56;;;;;;;28.33;8.88;;;;;;;7.94;100.00;97866.06;4977204;28;20022;-86
2022/12/21 01:08:24;;;;;;;40.38;8.10;;;;;;;7.93;100.00;97871.50;4977215;28;20082;-83
2022/12/21 01:10:56;;;;;;;32.80;9.18;;;;;;;8.03;100.00;97850.16;5011169;28;20030;-84
2022/12/21 01:13:22;;;;;;;28.37;8.10;;;;;;;8.28;100.00;97850.28;5010271;28;20026;-85
2022/12/21 01:15:48;;;;;;;33.78;7.50;;;;;;;8.08;100.00;97847.72;5011287;28;20374;-83
2022/12/21 01:18:15;;;;;;;38.60;8.20;;;;;;;7.86;100.00;97861.06;5011265;28;20069;-83
2022/12/21 01:20:45;;;;;;;38.88;7.95;;;;;;;8.11;100.00;97860.38;4993959;28;20486;-82
2022/12/21 01:23:11;;;;;;;33.22;7.75;;;;;;;7.84;100.00;97850.03;4994171;28;20422;-82
2022/12/21 01:25:37;;;;;;;37.65;8.30;;;;;;;8.03;100.00;97845.72;4977597;28;20030;-83
2022/12/21 01:28:03;;;;;;;29.77;7.55;;;;;;;8.04;100.00;97838.72;5012050;28;20033;-84
2022/12/21 01:30:29;;;;;;;33.92;8.35;;;;;;;8.26;100.00;97857.53;4993406;28;20025;-83
2022/12/21 01:32:55;;;;;;;28.42;8.25;;;;;;;8.31;100.00;97834.16;5016052;28;20399;-86
2022/12/21 01:35:21;;;;;;;33.13;8.23;;;;;;;8.24;100.00;97844.66;4997947;28;20022;-84
2022/12/21 01:37:47;;;;;;;33.90;8.30;;;;;;;8.03;100.00;97848.34;5015505;28;20068;-84
2022/12/21 01:40:13;;;;;;;35.15;8.15;;;;;;;8.21;100.00;97849.47;4981423;28;20073;-83
2022/12/21 01:42:40;;;;;;;33.75;8.88;;;;;;;8.12;100.00;97841.06;4981660;28;20030;-84
2022/12/21 01:45:32;;;;;;;31.80;7.00;;;;;;;8.40;100.00;97842.56;5015651;28;20450;-85
2022/12/21 01:48:03;;;;;;;26.23;7.00;;;;;;;8.70;100.00;97853.28;5014919;28;20119;-84
2022/12/21 01:50:28;;;;;;;21.05;7.20;;;;;;;8.53;100.00;97849.56;4997642;28;20080;-85
2022/12/21 01:52:57;;;;;;;37.97;7.90;;;;;;;8.75;100.00;97859.69;5015205;28;20065;-84
2022/12/21 01:55:24;;;;;;;26.50;7.10;;;;;;;8.39;100.00;97860.06;4997820;28;20117;-84
2022/12/21 01:57:49;;;;;;;32.00;8.40;;;;;;;8.15;100.00;97815.34;4982161;28;20040;-86
2022/12/21 02:00:15;;;;;;;34.38;7.45;;;;;;;8.49;100.00;97850.97;4997823;28;20395;-85
2022/12/21 02:02:53;;;;;;;36.70;7.90;;;;;;;8.34;100.00;97820.66;4997660;28;20116;-82
2022/12/21 02:05:53;;;;;;;30.52;7.95;;;;;;;8.38;100.00;97855.84;5014078;28;20033;-85
2022/12/21 02:08:21;;;;;;;26.13;9.13;;;;;;;8.47;100.00;97858.22;5001870;28;20065;-83
2022/12/21 02:10:47;;;;;;;28.48;8.18;;;;;;;8.36;100.00;97857.84;5015098;28;20100;-84
2022/12/21 02:13:14;;;;;;;29.30;7.25;;;;;;;8.80;100.00;97857.22;4997456;28;20033;-84
2022/12/21 02:15:54;;;;;;;26.05;7.78;;;;;;;8.68;100.00;97860.53;4980919;28;20458;-85
2022/12/21 02:18:20;;;;;;;26.17;7.30;;;;;;;8.66;100.00;97862.56;5013665;28;20376;-85
2022/12/21 02:20:48;;;;;;;24.33;7.63;;;;;;;8.88;100.00;97856.97;4996872;28;20025;-84
2022/12/21 02:23:26;;;;;;;37.78;7.57;;;;;;;8.73;100.00;97867.72;5013330;28;20076;-83
2022/12/21 02:26:07;;;;;;;28.23;6.35;;;;;;;8.59;100.00;97869.63;5013549;28;20357;-85
2022/12/21 02:28:50;;;;;;;34.85;6.88;;;;;;;8.54;100.00;97865.03;4980790;28;20377;-84
2022/12/21 02:31:24;;;;;;;36.65;8.45;;;;;;;8.48;100.00;97859.81;4996864;28;20026;-85
2022/12/21 02:34:01;;;;;;;28.50;7.15;;;;;;;8.72;100.00;97868.75;4996718;28;20038;-85
2022/12/21 02:36:36;;;;;;;27.05;7.10;;;;;;;8.86;100.00;97861.63;4979326;28;20038;-86
2022/12/21 02:39:11;;;;;;;32.17;7.05;;;;;;;8.65;100.00;97853.09;5013185;28;20046;-84
2022/12/21 02:42:06;;;;;;;31.30;7.65;;;;;;;8.73;100.00;97841.56;5013663;28;20073;-84
2022/12/21 02:44:42;;;;;;;32.83;6.68;;;;;;;8.61;100.00;97844.06;5029134;28;20057;-84
2022/12/21 02:47:29;;;;;;;33.08;7.57;;;;;;;8.80;100.00;97831.06;5014107;28;20026;-83
2022/12/21 02:50:02;;;;;;;31.85;7.13;;;;;;;8.66;100.00;97825.94;5013679;28;20444;-84
2022/12/21 02:52:47;;;;;;;29.38;6.57;;;;;;;8.69;100.00;97830.75;5014088;28;20040;-83
2022/12/21 02:55:13;;;;;;;32.63;6.88;;;;;;;8.55;100.00;97824.00;4996091;28;20034;-83
2022/12/21 02:57:41;;;;;;;31.45;6.93;;;;;;;8.66;100.00;97831.16;5013822;28;20025;-82
2022/12/21 03:00:13;;;;;;;35.90;7.55;;;;;;;8.52;100.00;97819.97;5013401;28;20050;-83
2022/12/21 03:03:47;;;;;;;28.80;6.68;;;;;;;8.79;100.00;97804.09;5013946;28;20361;-84
2022/12/21 03:05:48;;;;;;;27.02;7.05;;;;;;;8.79;100.00;97798.88;5014140;28;20018;-83
2022/12/21 03:08:34;;;;;;;28.95;6.68;;;;;;;8.60;100.00;97808.44;4996478;28;20143;-85
2022/12/21 03:11:02;;;;;;;19.55;7.82;;;;;;;8.55;100.00;97803.06;5013403;28;20501;-83
2022/12/21 03:13:52;;;;;;;29.92;7.60;;;;;;;8.06;100.00;97774.78;4996023;28;20487;-84
2022/12/21 03:16:46;;;;;;;26.00;7.25;;;;;;;8.27;100.00;97780.69;4994721;28;20037;-83
2022/12/21 03:19:37;;;;;;;27.95;6.53;;;;;;;8.40;100.00;97791.06;4996406;28;20034;-84
2022/12/21 03:22:11;;;;;;;23.10;6.53;;;;;;;8.56;100.00;97788.97;5010789;28;20030;-84
2022/12/21 03:24:56;;;;;;;23.33;6.03;;;;;;;8.19;100.00;97776.50;5012931;28;20050;-85
2022/12/21 03:27:29;;;;;;;26.42;5.82;;;;;;;8.55;100.00;97797.84;5011609;28;20105;-84
2022/12/21 03:30:02;;;;;;;24.08;5.80;;;;;;;8.49;100.00;97783.75;4979582;28;20037;-86
2022/12/21 03:32:38;;;;;;;22.13;6.00;;;;;;;8.32;100.00;97783.47;4996025;28;20022;-84
2022/12/21 03:35:07;;;;;;;30.27;5.95;;;;;;;8.17;100.00;97785.56;4995617;28;20034;-84
2022/12/21 03:37:38;;;;;;;23.70;6.50;;;;;;;8.65;100.00;97792.13;5013951;28;20041;-83
2022/12/21 03:40:17;;;;;;;23.95;5.82;;;;;;;8.51;100.00;97791.44;4996167;28;20038;-85
2022/12/21 03:42:53;;;;;;;26.77;6.10;;;;;;;8.42;100.00;97791.63;4979630;28;20509;-85
2022/12/21 03:45:25;;;;;;;19.88;5.28;;;;;;;8.28;100.00;97771.84;5013009;28;20114;-85
2022/12/21 03:48:42;;;;;;;20.15;5.35;;;;;;;8.08;100.00;97777.97;5013602;28;20128;-84
2022/12/21 03:51:18;;;;;;;11.93;4.35;;;;;;;8.53;100.00;97771.09;4955369;28;20101;-84
2022/12/21 03:53:48;;;;;;;18.15;4.85;;;;;;;8.31;100.00;97781.88;4995111;28;20033;-84
2022/12/21 03:56:29;;;;;;;25.65;5.07;;;;;;;8.59;100.00;97782.53;4995130;28;20165;-85
2022/12/21 03:58:55;;;;;;;20.25;5.63;;;;;;;8.13;100.00;97775.53;5027306;28;20038;-83
2022/12/21 04:01:30;;;;;;;21.60;4.93;;;;;;;8.60;100.00;97779.69;5027735;28;20387;-83
2022/12/21 04:04:19;;;;;;;15.40;4.10;;;;;;;8.19;100.00;97767.84;4995108;28;20042;-83
2022/12/21 04:06:48;;;;;;;20.08;4.05;;;;;;;8.17;100.00;97777.72;5011826;28;20372;-83
2022/12/21 04:09:14;;;;;;;16.58;3.53;;;;;;;8.15;100.00;97768.28;5012392;28;20029;-83
2022/12/21 04:14:33;;;;;;;12.77;3.30;;;;;;;8.21;100.00;97782.34;4995155;28;20030;-84
2022/12/21 04:16:58;;;;;;;16.15;3.85;;;;;;;8.05;100.00;97767.13;5012660;28;20342;-83
2022/12/21 04:30:29;;;;;;;11.70;2.70;;;;;;;8.33;100.00;97785.06;5012595;28;20033;-84
2022/12/21 04:32:54;;;;;;;8.63;2.50;;;;;;;8.17;100.00;97769.88;4978795;28;20038;-83
2022/12/21 04:35:20;;;;;;;12.23;2.45;;;;;;;8.28;100.00;97782.28;4994665;28;20305;-83
2022/12/21 04:37:54;;;;;;;9.57;2.30;;;;;;;8.39;100.00;97750.22;5011071;28;20034;-81
2022/12/21 04:40:20;;;;;;;6.82;1.85;;;;;;;8.13;100.00;97765.09;5012131;28;20050;-82
2022/12/21 04:42:45;;;;;;;6.63;2.25;;;;;;;7.99;100.00;97742.63;4994164;28;20395;-82
2022/12/21 04:45:11;;;;;;;3.20;1.73;;;;;;;8.26;100.00;97727.59;5008136;28;20115;-82
2022/12/21 04:47:36;;;;;;;3.75;1.48;;;;;;;8.23;100.00;97737.66;5012543;28;20029;-84
2022/12/21 04:50:03;;;;;;;7.20;1.85;;;;;;;8.28;100.00;97706.47;4995010;28;20040;-83
2022/12/21 04:52:30;;;;;;;4.85;1.75;;;;;;;8.36;100.00;97731.56;4995011;28;20399;-84
2022/12/21 04:54:56;;;;;;;5.38;1.60;;;;;;;8.43;100.00;97727.88;4977424;28;20041;-85
2022/12/21 04:57:22;;;;;;;4.80;1.65;;;;;;;8.24;100.00;97700.06;4979038;28;20390;-85
2022/12/21 04:59:50;;;;;;;3.20;1.20;;;;;;;8.26;100.00;97711.91;4979168;28;20054;-85
2022/12/21 05:02:16;;;;;;;4.97;1.52;;;;;;;8.15;100.00;97716.00;4994908;28;20025;-83
2022/12/21 05:04:41;;;;;;;1.80;1.40;;;;;;;8.13;100.00;97712.81;5012663;28;20037;-84
2022/12/21 05:07:07;;;;;;;4.72;1.40;;;;;;;7.98;100.00;97725.34;4978591;28;20034;-85
2022/12/21 05:09:33;;;;;;;6.72;1.50;;;;;;;7.73;100.00;97710.44;4994643;28;20026;-83
2022/12/21 05:11:58;;;;;;;7.47;1.45;;;;;;;7.99;100.00;97732.19;5011574;28;20088;-84
2022/12/21 05:14:24;;;;;;;5.70;1.40;;;;;;;7.65;100.00;97694.97;5010913;28;20387;-84
2022/12/21 05:16:50;;;;;;;4.10;1.60;;;;;;;7.81;100.00;97731.06;5011327;28;20034;-83
2022/12/21 05:19:15;;;;;;;6.78;2.03;;;;;;;7.77;100.00;97714.22;4993313;28;20796;-83
2022/12/21 05:21:41;;;;;;;7.25;2.08;;;;;;;7.68;100.00;97700.59;5011099;28;20026;-85
2022/12/21 05:24:07;;;;;;;6.65;1.83;;;;;;;7.88;100.00;97712.75;5011725;28;20479;-85
2022/12/21 05:26:41;;;;;;;4.32;2.10;;;;;;;7.67;100.00;97713.88;4995424;28;20030;-85
2022/12/21 05:29:10;;;;;;;8.13;2.10;;;;;;;7.35;100.00;97685.88;5010443;28;20495;-85
2022/12/21 05:31:36;;;;;;;8.98;3.30;;;;;;;7.46;100.00;97704.53;5011697;28;20032;-85
2022/12/21 05:34:05;;;;;;;9.70;2.63;;;;;;;7.45;100.00;97716.75;5012048;28;20057;-84
2022/12/21 05:36:30;;;;;;;10.48;2.20;;;;;;;6.99;100.00;97698.44;4994677;28;20542;-82
2022/12/21 05:38:57;;;;;;;11.65;3.42;;;;;;;7.23;100.00;97698.75;5011688;28;20060;-86
2022/12/21 05:41:30;;;;;;;11.27;2.72;;;;;;;7.02;100.00;97675.53;5009330;28;20037;-86
2022/12/21 05:43:56;;;;;;;8.95;2.58;;;;;;;7.28;100.00;97717.25;5011918;28;20026;-83
2022/12/21 05:46:22;;;;;;;7.60;2.22;;;;;;;7.26;100.00;97703.56;4977931;28;20076;-83
2022/12/21 05:48:48;;;;;;;8.85;3.45;;;;;;;7.24;100.00;97716.03;4994090;28;20056;-85
2022/12/21 05:51:14;;;;;;;6.90;2.10;;;;;;;7.32;100.00;97717.63;4993819;28;20484;-83
2022/12/21 05:53:44;;;;;;;6.55;2.50;;;;;;;7.23;100.00;97719.66;4993889;28;20037;-84
2022/12/21 05:56:16;;;;;;;10.88;2.42;;;;;;;7.16;100.00;97708.44;4993476;28;20427;-85
2022/12/21 05:58:41;;;;;;;16.10;3.03;;;;;;;7.13;100.00;97719.28;4993785;28;20085;-86
2022/12/21 06:01:09;;;;;;;8.15;2.05;;;;;;;7.13;100.00;97735.72;4994060;28;20038;-84
2022/12/21 06:03:36;;;;;;;8.10;2.45;;;;;;;6.98;100.00;97735.97;5010661;28;20045;-85
2022/12/21 06:06:07;;;;;;;7.10;2.28;;;;;;;7.00;100.00;97739.16;4993159;28;20034;-84
2022/12/21 06:08:37;;;;;;;9.30;2.58;;;;;;;6.70;100.00;97742.22;4994034;28;20029;-85
2022/12/21 06:11:08;;;;;;;11.15;2.58;;;;;;;6.86;100.00;97734.97;4993350;28;20390;-81
2022/12/21 06:13:35;;;;;;;7.65;2.70;;;;;;;6.90;100.00;97745.81;4993368;28;20037;-82
2022/12/21 06:16:09;;;;;;;9.88;2.28;;;;;;;6.84;100.00;97739.59;4977336;28;20503;-81
2022/12/21 06:18:36;;;;;;;7.05;2.70;;;;;;;6.78;100.00;97729.97;4980269;28;20052;-84
2022/12/21 06:21:08;;;;;;;4.38;2.28;;;;;;;6.71;100.00;97730.78;4982986;28;20029;-83
2022/12/21 06:23:35;;;;;;;16.58;3.75;;;;;;;6.68;100.00;97733.81;4982391;28;20033;-83
2022/12/21 06:26:02;;;;;;;5.20;2.15;;;;;;;6.59;100.00;97742.03;4981141;28;20493;-83
2022/12/21 06:28:38;;;;;;;8.15;2.95;;;;;;;6.45;100.00;97738.59;4998913;28;20116;-83
2022/12/21 06:31:06;;;;;;;11.50;2.83;;;;;;;6.53;100.00;97744.41;4981657;28;20036;-85
2022/12/21 06:33:41;;;;;;;14.63;3.05;;;;;;;6.50;100.00;97747.44;4983271;28;20021;-85
2022/12/21 06:36:08;;;;;;;10.48;2.30;;;;;;;6.68;100.00;97744.25;4998117;28;20034;-86
2022/12/21 06:38:34;;;;;;;10.02;2.85;;;;;;;6.53;100.00;97730.59;4980279;28;20034;-84
2022/12/21 06:41:03;;;;;;;14.00;2.78;;;;;;;6.68;100.00;97740.81;4997929;28;20387;-84
2022/12/21 06:43:31;;;;;;;6.40;2.03;;;;;;;6.85;100.00;97733.38;4977939;28;20033;-82
2022/12/21 06:46:03;;;;;;;4.45;2.80;;;;;;;6.72;100.00;97703.72;4981156;28;20029;-84
2022/12/21 06:48:37;;;;;;;7.05;2.03;;;;;;;6.87;100.00;97723.53;4981541;28;20022;-84
2022/12/21 06:51:07;;;;;;;7.65;2.92;;;;;;;6.67;100.00;97715.75;4997336;28;20437;-85
2022/12/21 06:53:36;;;;;;;8.27;2.38;;;;;;;6.75;100.00;97727.78;4980973;28;20461;-85
2022/12/21 06:56:07;;;;;;;7.10;1.98;;;;;;;6.50;100.00;97720.56;4995225;28;20037;-84
2022/12/21 06:58:34;;;;;;;6.60;2.22;;;;;;;6.58;100.00;97738.59;5011390;28;20026;-84
2022/12/21 07:01:08;;;;;;;12.52;2.67;;;;;;;6.68;100.00;97723.38;4997197;28;20033;-85
2022/12/21 07:03:34;;;;;;;5.50;2.60;;;;;;;6.53;100.00;97715.75;4996966;28;20155;-84
2022/12/21 07:06:02;;;;;;;9.55;1.95;;;;;;;6.86;100.00;97734.97;4981277;28;20080;-86
2022/12/21 07:08:29;;;;;;;7.95;2.10;;;;;;;6.74;100.00;97736.59;5014505;28;20040;-85
2022/12/21 07:11:00;;;;;;;8.27;2.90;;;;;;;6.87;100.00;97731.34;5013985;28;20113;-85
2022/12/21 07:13:27;;;;;;;4.80;1.63;;;;;;;6.66;100.00;97725.34;5014078;28;20037;-84
2022/12/21 07:15:53;;;;;;;6.47;2.05;;;;;;;6.79;100.00;97739.41;4979315;28;20502;-83
2022/12/21 07:18:19;;;;;;;7.13;2.17;;;;;;;6.57;100.00;97719.53;5013590;28;20037;-86
2022/12/21 07:20:57;;;;;;;4.72;2.03;;;;;;;6.66;100.00;97724.56;4995669;28;20042;-85
2022/12/21 07:23:26;;;;;;;6.07;2.83;;;;;;;6.50;100.00;97721.34;4996219;28;20034;-84
2022/12/21 07:25:53;;;;;;;6.68;2.13;;;;;;;6.62;100.00;97745.03;4996301;28;20161;-84
2022/12/21 07:28:27;;;;;;;4.75;1.63;;;;;;;6.43;100.00;97725.78;4997245;28;20084;-83
2022/12/21 07:31:07;;;;;;;6.32;2.10;;;;;;;6.56;100.00;97727.56;5013495;28;20037;-82
2022/12/21 07:33:37;;;;;;;9.68;1.75;;;;;;;6.51;100.00;97748.25;4995300;28;20452;-84
2022/12/21 07:36:06;;;;;;;5.82;1.70;;;;;;;6.45;100.00;97743.81;5012827;28;20034;-84
2022/12/21 07:38:34;;;;;;;8.88;1.50;;;;;;;6.25;100.00;97708.91;4979655;28;20419;-84
2022/12/21 07:41:01;;;;;;;3.42;1.45;;;;;;;6.50;100.00;97749.25;4994838;28;20177;-83
2022/12/21 07:43:27;;;;;;;9.95;1.80;;;;;;;6.35;100.00;97724.16;4995446;28;20041;-84
2022/12/21 07:45:53;;;;;;;4.50;2.30;;;;;;;6.50;100.00;97746.63;4995966;28;20380;-85
2022/12/21 07:48:20;;;;;;;10.02;1.73;;;;;;;6.49;100.00;97758.84;4994686;28;20100;-84
2022/12/21 07:50:50;;;;;;;5.50;1.92;;;;;;;6.51;100.00;97761.28;4995228;28;20026;-83
2022/12/21 07:53:17;;;;;;;6.50;1.90;;;;;;;6.54;100.00;97768.69;5013127;28;20116;-84
2022/12/21 07:55:43;;;;;;;5.78;2.17;;;;;;;6.25;100.00;97748.00;4995508;28;20501;-84
2022/12/21 07:58:09;;;;;;;3.40;1.80;;;;;;;6.37;100.00;97755.22;5013054;28;20025;-83
2022/12/21 08:00:37;;;;;;;3.17;1.67;;;;;;;6.36;100.00;97746.63;5012867;28;20425;-83
2022/12/21 08:03:03;;;;;;;6.72;1.42;;;;;;;6.33;100.00;97752.22;4996103;28;20121;-86
2022/12/21 08:05:29;;;;;;;7.65;1.95;;;;;;;6.14;100.00;97727.75;5014798;28;20105;-85
2022/12/21 08:07:54;;;;;;;4.07;1.50;;;;;;;6.26;100.00;97740.97;4979090;28;20475;-85
2022/12/21 08:10:20;;;;;;;3.15;1.40;;;;;;;6.21;100.00;97738.16;4995374;28;20088;-83
2022/12/21 08:12:45;;;;;;;2.35;1.50;;;;;;;6.29;100.00;97751.03;4995375;28;20392;-83
2022/12/21 08:15:11;;;;;;;6.43;1.30;;;;;;;6.20;100.00;97741.78;4978567;28;20026;-84
2022/12/21 08:17:37;;;;;;;4.28;2.05;;;;;;;5.99;100.00;97746.94;5012784;28;20030;-84
2022/12/21 08:20:04;;;;;;;2.70;1.50;;;;;;;6.22;100.00;97739.78;5012129;28;20471;-81
2022/12/21 08:22:29;;;;;;;9.75;1.60;;;;;;;6.37;100.00;97743.00;4995401;28;20073;-82
2022/12/21 08:24:55;;;;;;;5.03;1.50;;;;;;;6.24;100.00;97737.78;5013373;28;20044;-83
2022/12/21 08:27:21;;;;;;;5.03;1.60;;;;;;;6.41;100.00;97752.03;4995202;28;20022;-83
2022/12/21 08:29:46;;;;;;;5.95;1.65;;;;;;;6.49;100.00;97750.25;4994321;28;20037;-83
2022/12/21 08:32:12;;;;;;;9.60;1.67;;;;;;;6.28;100.00;97749.41;4995834;28;20030;-84
2022/12/21 08:34:39;;;;;;;5.38;1.80;;;;;;;6.40;100.00;97758.25;4995490;28;20029;-85
2022/12/21 08:37:04;;;;;;;5.95;1.65;;;;;;;6.63;100.00;97754.44;4995177;28;20072;-84
2022/12/21 08:39:30;;;;;;;6.97;1.80;;;;;;;6.32;100.00;97740.22;4995313;28;20046;-83
2022/12/21 08:41:55;;;;;;;11.93;2.03;;;;;;;6.47;100.00;97726.97;4995121;28;20437;-84
2022/12/21 08:44:25;;;;;;;7.78;2.60;;;;;;;6.65;100.00;97749.81;5012763;28;20030;-84
2022/12/21 08:46:50;;;;;;;10.52;2.22;;;;;;;6.46;100.00;97750.63;5011812;28;20075;-83
2022/12/21 08:49:16;;;;;;;6.53;1.77;;;;;;;6.34;100.00;97706.94;5013162;28;20030;-84
2022/12/21 08:51:41;;;;;;;4.88;1.70;;;;;;;6.75;100.00;97748.63;5012063;28;20065;-82
2022/12/21 08:54:08;;;;;;;4.70;1.65;;;;;;;6.61;100.00;97734.81;4994005;28;20506;-84
2022/12/21 08:56:34;;;;;;;4.28;1.45;;;;;;;6.66;100.00;97730.56;5011943;28;20493;-85
2022/12/21 08:59:03;;;;;;;6.03;1.60;;;;;;;6.86;100.00;97748.81;5011064;28;20140;-85
2022/12/21 09:01:29;;;;;;;6.05;1.70;;;;;;;6.65;100.00;97742.00;4994174;28;20033;-83
2022/12/21 09:03:55;;;;;;;6.28;1.35;;;;;;;6.85;100.00;97741.19;4992585;28;20037;-82
2022/12/21 09:06:21;;;;;;;9.07;1.80;;;;;;;6.96;100.00;97745.00;5009618;28;20026;-83
2022/12/21 09:08:48;;;;;;;6.50;2.08;;;;;;;6.75;100.00;97748.63;4992308;28;20030;-84
2022/12/21 09:11:16;;;;;;;7.05;1.50;;;;;;;6.87;100.00;97747.00;4993656;28;20033;-83
2022/12/21 09:13:42;;;;;;;5.05;1.38;;;;;;;6.74;100.00;97749.66;4992585;28;20111;-83
2022/12/21 09:16:19;;;;;;;6.57;1.42;;;;;;;6.97;100.00;97752.63;4993699;28;20531;-82
2022/12/21 09:18:46;;;;;;;3.15;1.35;;;;;;;6.63;100.00;97740.63;4976999;28;20030;-83
2022/12/21 09:21:13;;;;;;;4.47;1.35;;;;;;;6.84;100.00;97736.97;5010036;28;20095;-83
2022/12/21 09:23:40;;;;;;;7.03;1.58;;;;;;;6.95;100.00;97754.63;4991819;28;20033;-87
2022/12/21 09:26:07;;;;;;;6.50;1.80;;;;;;;6.95;100.00;97752.03;4979790;28;20053;-87
2022/12/21 09:28:33;;;;;;;5.18;1.92;;;;;;;7.08;100.00;97748.59;4979194;28;20087;-87
2022/12/21 09:31:10;;;;;;;8.23;1.77;;;;;;;7.13;100.00;97753.22;4994245;28;20480;-86
2022/12/21 09:33:37;;;;;;;3.75;1.30;;;;;;;7.22;100.00;97733.69;4976656;28;20038;-86
2022/12/21 09:36:03;;;;;;;6.70;1.40;;;;;;;7.10;100.00;97724.91;4977606;28;20165;-89
2022/12/21 09:38:30;;;;;;;6.72;1.42;;;;;;;7.27;100.00;97726.09;5011794;28;20619;-88
2022/12/21 09:41:20;;;;;;;4.30;1.35;;;;;;;7.36;100.00;97749.34;4977492;28;20160;-87
2022/12/21 09:44:12;;;;;;;5.65;1.60;;;;;;;7.24;100.00;97726.47;4959543;28;20050;-89
2022/12/21 09:46:41;;;;;;;3.50;1.38;;;;;;;7.37;100.00;97725.66;4990266;28;20053;-86
2022/12/21 09:49:33;;;;;;;5.10;1.30;;;;;;;7.56;100.00;97721.34;5011823;28;20029;-86
2022/12/21 09:52:01;;;;;;;7.80;1.80;;;;;;;7.39;100.00;97728.84;4977203;28;20044;-86
2022/12/21 09:54:41;;;;;;;6.95;1.23;;;;;;;7.37;100.00;97730.06;5013645;28;20396;-88
2022/12/21 09:57:12;;;;;;;4.88;1.40;;;;;;;7.16;100.00;97711.03;5014712;28;20101;-85
2022/12/21 09:59:37;;;;;;;6.65;1.70;;;;;;;7.11;100.00;97727.31;4996153;28;20527;-85
2022/12/21 10:02:09;;;;;;;3.38;1.10;;;;;;;7.12;100.00;97728.13;5015265;28;20038;-85
2022/12/21 10:04:51;;;;;;;8.25;1.55;;;;;;;6.99;100.00;97710.69;4981291;28;20044;-87
2022/12/21 10:07:37;;;;;;;4.82;1.80;;;;;;;7.37;100.00;97706.56;4998443;28;20479;-85
2022/12/21 10:10:20;;;;;;;7.53;1.58;;;;;;;7.66;100.00;97712.25;4996131;28;20471;-84
2022/12/21 10:12:57;;;;;;;3.15;1.33;;;;;;;7.58;100.00;97690.59;5014031;28;20037;-84
2022/12/21 10:16:05;;;;;;;5.88;1.80;;;;;;;7.62;100.00;97695.41;4977880;28;20041;-83
2022/12/21 10:18:38;;;;;;;5.80;2.00;;;;;;;7.80;100.00;97690.28;5013181;28;20025;-85
2022/12/21 10:21:04;;;;;;;4.32;1.90;;;;;;;7.72;100.00;97701.00;5013442;28;20034;-82
2022/12/21 10:23:34;;;;;;;10.50;2.35;;;;;;;7.64;100.00;97696.00;4996719;28;20442;-81
2022/12/21 10:26:03;;;;;;;6.70;1.73;;;;;;;7.54;100.00;97699.88;5012883;28;20063;-86
2022/12/21 10:29:14;;;;;;;14.23;2.10;;;;;;;7.74;100.00;97696.34;5012060;28;20462;-85
2022/12/21 10:31:44;;;;;;;11.32;2.47;;;;;;;7.68;100.00;97694.59;4992487;28;20038;-85
2022/12/21 10:34:34;;;;;;;8.10;1.75;;;;;;;7.61;100.00;97694.63;5012593;28;20029;-86
2022/12/21 10:37:12;;;;;;;6.88;2.00;;;;;;;7.52;100.00;97683.59;4987043;28;20399;-85
2022/12/21 10:39:38;;;;;;;6.80;1.90;;;;;;;7.68;100.00;97684.13;5013744;28;20132;-87
2022/12/21 10:42:17;;;;;;;9.25;1.77;;;;;;;8.21;100.00;97672.53;4980547;28;20116;-86
2022/12/21 10:44:43;;;;;;;8.80;2.10;;;;;;;8.02;100.00;97652.59;4996219;28;20030;-86
2022/12/21 10:47:18;;;;;;;9.68;2.00;;;;;;;7.85;100.00;97656.50;5014060;28;20076;-87
2022/12/21 10:50:06;;;;;;;9.60;2.15;;;;;;;8.08;100.00;97657.75;4996896;28;20026;-86
2022/12/21 10:52:52;;;;;;;15.30;2.17;;;;;;;8.21;100.00;97645.59;4996964;28;20030;-86
2022/12/21 10:55:18;;;;;;;7.90;2.03;;;;;;;7.86;100.00;97650.28;5013891;28;20084;-87
2022/12/21 10:57:53;;;;;;;4.78;2.38;;;;;;;8.00;100.00;97642.31;4996776;28;20071;-89
2022/12/21 11:00:30;;;;;;;6.75;1.98;;;;;;;7.99;100.00;97640.72;5013803;28;20077;-86
2022/12/21 11:02:58;;;;;;;8.18;2.10;;;;;;;8.06;100.00;97625.81;5028461;28;20034;-85
2022/12/21 11:05:25;;;;;;;11.52;2.40;;;;;;;8.00;100.00;97637.91;4980458;28;20033;-88
2022/12/21 11:07:51;;;;;;;10.95;2.42;;;;;;;8.27;100.00;97642.94;4996319;28;20061;-88
2022/12/21 11:10:28;;;;;;;4.85;1.80;;;;;;;8.13;100.00;97626.56;4996692;28;20084;-87
2022/12/21 11:12:54;;;;;;;8.25;1.80;;;;;;;8.35;100.00;97654.13;4996007;28;20407;-86
2022/12/21 11:15:22;;;;;;;9.60;2.33;;;;;;;8.36;100.00;97621.75;4997050;28;20080;-86
2022/12/21 11:17:48;;;;;;;8.70;2.15;;;;;;;8.29;100.00;97647.94;4996567;28;20476;-87
2022/12/21 11:20:21;;;;;;;5.03;1.70;;;;;;;8.74;100.00;97644.34;4996359;28;20081;-87
2022/12/21 11:22:52;;;;;;;10.02;1.77;;;;;;;8.44;100.00;97642.38;4996699;28;20026;-88
2022/12/21 11:25:22;;;;;;;8.43;1.70;;;;;;;8.55;100.00;97652.19;4993874;28;20030;-86
2022/12/21 11:27:50;;;;;;;5.75;1.88;;;;;;;8.67;100.00;97639.19;4996425;28;20088;-88
2022/12/21 11:30:49;;;;;;;12.05;2.08;;;;;;;8.84;100.00;97651.69;5013751;28;20498;-87
2022/12/21 11:33:19;;;;;;;13.23;2.38;;;;;;;8.60;100.00;97635.81;4997601;28;20029;-89
2022/12/21 11:36:09;;;;;;;7.25;1.90;;;;;;;8.53;100.00;97648.97;4984601;28;20034;-89
2022/12/21 11:38:36;;;;;;;7.18;2.03;;;;;;;8.61;100.00;97655.72;5018567;28;20033;-88
2022/12/21 11:41:08;;;;;;;6.00;2.00;;;;;;;8.46;100.00;97629.13;5019969;28;20048;-89
2022/12/21 11:43:43;;;;;;;8.57;2.67;;;;;;;8.71;100.00;97645.59;5019769;28;20053;-89
2022/12/21 11:46:55;;;;;;;10.57;2.05;;;;;;;8.93;100.00;97637.31;5001154;28;20032;-91
2022/12/21 11:49:49;;;;;;;10.85;2.83;;;;;;;8.77;100.00;97627.41;4921439;29;20064;-90
2022/12/21 11:52:46;;;;;;;4.80;2.08;;;;;;;8.93;100.00;97615.56;4877417;29;20153;-89
2022/12/21 11:55:34;;;;;;;7.72;2.20;;;;;;;8.93;100.00;97626.03;4993592;28;20053;-89
2022/12/21 11:58:30;;;;;;;8.32;3.33;;;;;;;8.70;100.00;97609.97;4996918;28;20042;-88
2022/12/21 12:01:06;;;;;;;9.25;2.55;;;;;;;8.81;100.00;97612.88;5012553;28;20034;-87
2022/12/21 12:04:16;;;;;;;11.82;3.00;;;;;;;8.95;100.00;97590.00;4977755;28;20480;-87